Time;durP1;ratioP1;P1;durP2;ratioP2;P2;SDS_P1;SDS_P2;PMS_P1;PMS_P2;Temp;Humidity;BMP_temperature;BMP_pressure;BME280_temperature;BME280_humidity;BME280_pressure;Samples;Min_cycle;Max_cycle;Signal;HPM_P1;HPM_P2
2023/06/28 00:01:00;;;;;;;5.95;2.08;;;23.80;57.50;;;;;;5013281;28;20040;-53
2023/06/28 00:03:27;;;;;;;7.40;1.90;;;23.80;57.80;;;;;;5012979;28;20485;-53
2023/06/28 00:05:53;;;;;;;9.18;2.20;;;23.80;57.70;;;;;;5012081;28;20018;-55
2023/06/28 00:08:18;;;;;;;8.82;1.85;;;23.80;57.60;;;;;;5010256;28;20022;-53
2023/06/28 00:10:44;;;;;;;8.35;1.80;;;23.80;57.80;;;;;;5011309;28;20080;-54
2023/06/28 00:13:10;;;;;;;7.85;1.60;;;23.80;57.50;;;;;;5012312;28;20022;-54
2023/06/28 00:15:36;;;;;;;6.70;1.90;;;23.80;57.70;;;;;;5012713;28;20029;-54
2023/06/28 00:18:02;;;;;;;7.30;1.88;;;23.70;57.60;;;;;;5011580;28;20054;-54
2023/06/28 00:20:28;;;;;;;10.50;2.10;;;23.70;57.50;;;;;;5011621;28;20030;-55
2023/06/28 00:22:55;;;;;;;6.55;1.80;;;23.70;57.60;;;;;;5012714;28;20064;-55
2023/06/28 00:25:21;;;;;;;8.52;2.33;;;23.70;57.60;;;;;;5010646;28;20113;-55
2023/06/28 00:27:47;;;;;;;5.97;1.70;;;23.70;57.50;;;;;;5012492;28;20080;-55
2023/06/28 00:30:13;;;;;;;7.80;2.17;;;23.70;57.60;;;;;;4992401;28;20017;-54
2023/06/28 00:32:39;;;;;;;8.25;2.08;;;23.70;57.40;;;;;;5011696;28;20071;-55
2023/06/28 00:35:06;;;;;;;6.80;1.90;;;23.70;57.60;;;;;;4994617;28;20439;-55
2023/06/28 00:37:32;;;;;;;7.55;1.88;;;23.70;57.60;;;;;;5012137;28;20030;-55
2023/06/28 00:40:03;;;;;;;7.25;1.88;;;23.70;57.70;;;;;;4993019;28;20037;-52
2023/06/28 00:42:29;;;;;;;13.88;2.47;;;23.70;57.60;;;;;;4993576;28;20037;-55
2023/06/28 00:44:55;;;;;;;5.38;1.75;;;23.70;57.70;;;;;;4994114;28;20108;-54
2023/06/28 00:47:22;;;;;;;3.83;1.52;;;23.70;57.60;;;;;;4994697;28;20030;-52
2023/06/28 00:49:50;;;;;;;6.82;2.20;;;23.70;57.50;;;;;;4992936;28;20046;-53
2023/06/28 00:52:16;;;;;;;7.15;1.95;;;23.70;57.50;;;;;;5010525;28;20045;-54
2023/06/28 00:54:42;;;;;;;7.68;1.63;;;23.70;57.80;;;;;;5011489;28;20567;-53
2023/06/28 00:57:08;;;;;;;9.02;2.33;;;23.70;57.60;;;;;;4975438;28;20177;-53
2023/06/28 00:59:35;;;;;;;6.88;2.13;;;23.70;57.70;;;;;;4994051;28;20033;-52
2023/06/28 01:02:02;;;;;;;6.07;1.63;;;23.60;57.70;;;;;;5009288;28;20040;-54
2023/06/28 01:04:27;;;;;;;6.45;1.67;;;23.60;57.80;;;;;;5010063;28;20858;-51
2023/06/28 01:06:55;;;;;;;4.90;1.55;;;23.60;57.60;;;;;;4994960;28;20025;-54
2023/06/28 01:09:24;;;;;;;9.48;2.63;;;23.60;57.60;;;;;;5011791;28;20058;-54
2023/06/28 01:11:51;;;;;;;6.85;1.70;;;23.60;57.70;;;;;;4992423;28;20437;-55
2023/06/28 01:14:19;;;;;;;6.85;1.77;;;23.60;57.60;;;;;;5010938;28;20048;-50
2023/06/28 01:16:54;;;;;;;9.27;1.90;;;23.60;57.60;;;;;;5007145;28;20034;-51
2023/06/28 01:19:25;;;;;;;8.02;1.80;;;23.60;57.60;;;;;;5011920;28;20036;-51
2023/06/28 01:22:01;;;;;;;8.63;1.85;;;23.60;57.60;;;;;;5010225;28;20029;-50
2023/06/28 01:24:27;;;;;;;5.90;1.88;;;23.70;57.70;;;;;;5010074;28;20030;-51
2023/06/28 01:26:57;;;;;;;6.85;1.90;;;23.60;57.80;;;;;;4994421;28;20034;-51
2023/06/28 01:29:24;;;;;;;;;;;23.60;57.60;;;;;;4994205;28;20037;-51
2023/06/28 01:31:51;;;;;;;10.10;2.05;;;23.60;58.00;;;;;;4992180;28;19909;-49
2023/06/28 01:34:17;;;;;;;4.68;1.60;;;23.60;57.90;;;;;;5007235;28;20113;-51
2023/06/28 01:36:44;;;;;;;8.35;1.95;;;23.60;57.70;;;;;;5010906;28;20472;-50
2023/06/28 01:39:10;;;;;;;8.15;1.70;;;23.60;57.70;;;;;;5011833;28;20400;-53
2023/06/28 01:41:37;;;;;;;6.93;2.00;;;23.60;57.70;;;;;;5011110;28;20038;-50
2023/06/28 01:44:03;;;;;;;8.77;1.90;;;23.60;57.90;;;;;;5009751;28;20493;-51
2023/06/28 01:46:30;;;;;;;12.05;1.92;;;23.60;58.10;;;;;;5009683;28;20072;-53
2023/06/28 01:48:57;;;;;;;6.28;2.13;;;23.60;57.50;;;;;;5011741;28;20026;-55
2023/06/28 01:51:23;;;;;;;6.45;2.42;;;23.60;57.70;;;;;;4993611;28;20489;-54
2023/06/28 01:53:49;;;;;;;6.45;1.88;;;23.60;57.40;;;;;;5011024;28;20041;-51
2023/06/28 01:56:15;;;;;;;12.90;2.10;;;23.60;57.50;;;;;;4992575;28;20033;-50
2023/06/28 01:58:40;;;;;;;8.60;1.95;;;23.60;57.20;;;;;;4994093;28;20037;-55
2023/06/28 02:01:06;;;;;;;11.25;1.90;;;23.60;57.40;;;;;;5007167;28;20026;-52
2023/06/28 02:03:32;;;;;;;5.00;1.73;;;23.60;57.70;;;;;;5012821;28;20045;-51
2023/06/28 02:05:58;;;;;;;11.07;1.95;;;23.60;57.80;;;;;;4994503;28;20037;-53
2023/06/28 02:08:24;;;;;;;9.25;2.10;;;23.60;57.50;;;;;;5014715;28;20026;-54
2023/06/28 02:10:49;;;;;;;7.53;1.92;;;23.60;57.50;;;;;;5014727;28;20176;-51
2023/06/28 02:13:15;;;;;;;9.00;2.53;;;23.60;57.70;;;;;;4996360;28;20072;-51
2023/06/28 02:15:41;;;;;;;8.55;2.10;;;23.60;57.60;;;;;;4995706;28;20085;-48
2023/06/28 02:18:08;;;;;;;9.75;1.90;;;23.60;57.90;;;;;;4997382;28;20034;-51
2023/06/28 02:20:34;;;;;;;6.95;1.92;;;23.60;57.50;;;;;;5014500;28;20105;-51
2023/06/28 02:23:02;;;;;;;8.82;1.85;;;23.60;57.70;;;;;;4996783;28;20056;-49
2023/06/28 02:25:28;;;;;;;8.07;2.10;;;23.60;57.30;;;;;;5012525;28;20025;-49
2023/06/28 02:27:54;;;;;;;6.38;1.90;;;23.60;57.40;;;;;;5013118;28;20490;-49
2023/06/28 02:30:20;;;;;;;7.95;2.20;;;23.60;57.60;;;;;;5014341;28;20034;-50
2023/06/28 02:32:45;;;;;;;6.47;2.20;;;23.60;57.70;;;;;;5014161;28;20021;-49
2023/06/28 02:35:13;;;;;;;11.90;2.40;;;23.60;57.50;;;;;;5014325;28;20026;-49
2023/06/28 02:37:40;;;;;;;7.50;2.35;;;23.50;57.50;;;;;;5011984;28;20558;-50
2023/06/28 02:40:10;;;;;;;6.03;1.80;;;23.60;57.30;;;;;;4996240;28;20030;-48
2023/06/28 02:42:37;;;;;;;7.03;1.95;;;23.50;57.30;;;;;;5013476;28;20500;-50
2023/06/28 02:45:03;;;;;;;7.18;2.10;;;23.60;57.60;;;;;;4996237;28;20064;-50
2023/06/28 02:47:29;;;;;;;7.43;2.15;;;23.60;57.20;;;;;;5014750;28;20014;-52
2023/06/28 02:49:55;;;;;;;7.93;2.00;;;23.50;57.50;;;;;;4996184;28;20033;-55
2023/06/28 02:52:21;;;;;;;6.32;1.80;;;23.50;57.30;;;;;;4996475;28;20022;-55
2023/06/28 02:54:47;;;;;;;7.10;1.83;;;23.50;57.60;;;;;;4995792;28;20096;-55
2023/06/28 02:57:13;;;;;;;8.48;2.15;;;23.60;57.30;;;;;;4995026;28;20057;-54
2023/06/28 03:00:02;;;;;;;4.28;1.50;;;23.50;57.00;;;;;;5013464;28;20034;-54
2023/06/28 03:02:29;;;;;;;6.18;1.80;;;23.50;57.20;;;;;;4997035;28;20466;-50
2023/06/28 03:04:55;;;;;;;4.72;1.80;;;23.50;57.20;;;;;;4996175;28;20062;-51
2023/06/28 03:07:21;;;;;;;7.53;1.63;;;23.50;57.30;;;;;;4996368;28;20397;-49
2023/06/28 03:09:48;;;;;;;7.22;2.35;;;23.50;57.80;;;;;;4994865;28;20034;-48
2023/06/28 03:12:14;;;;;;;6.50;1.92;;;23.50;57.20;;;;;;5012704;28;20362;-47
2023/06/28 03:14:40;;;;;;;6.80;1.90;;;23.50;57.30;;;;;;5011197;28;20133;-51
2023/06/28 03:17:06;;;;;;;7.60;2.10;;;23.60;57.10;;;;;;5013712;28;20040;-48
2023/06/28 03:19:31;;;;;;;7.40;1.75;;;23.50;57.10;;;;;;5011272;28;20457;-53
2023/06/28 03:21:57;;;;;;;6.80;2.10;;;23.60;57.50;;;;;;4995935;28;20053;-52
2023/06/28 03:24:23;;;;;;;7.28;1.80;;;23.50;57.20;;;;;;4995725;28;20595;-47
2023/06/28 03:26:49;;;;;;;8.38;2.22;;;23.50;57.30;;;;;;5014113;28;20030;-49
2023/06/28 03:29:15;;;;;;;12.75;2.10;;;23.50;57.10;;;;;;4994446;28;20021;-53
2023/06/28 03:31:41;;;;;;;7.72;2.30;;;23.50;57.20;;;;;;4995159;28;20030;-54
2023/06/28 03:34:07;;;;;;;7.75;1.80;;;23.50;57.00;;;;;;4995973;28;20054;-50
2023/06/28 03:36:34;;;;;;;6.53;1.90;;;23.50;57.10;;;;;;4996156;28;20112;-48
2023/06/28 03:39:00;;;;;;;7.82;2.28;;;23.50;57.00;;;;;;5013181;28;20030;-54
2023/06/28 03:41:27;;;;;;;8.50;2.20;;;23.50;57.10;;;;;;4992468;28;20026;-51
2023/06/28 03:43:53;;;;;;;5.57;1.67;;;23.50;57.60;;;;;;5008167;28;20030;-52
2023/06/28 03:46:20;;;;;;;7.10;2.10;;;23.50;56.80;;;;;;5015092;23;20141;-45
2023/06/28 03:48:45;;;;;;;3.85;1.70;;;23.50;57.10;;;;;;4995395;28;20110;-43
2023/06/28 03:51:11;;;;;;;6.80;2.15;;;23.50;57.20;;;;;;4995898;28;20026;-43
2023/06/28 03:53:37;;;;;;;5.63;1.73;;;23.50;57.10;;;;;;5007039;28;20579;-49
2023/06/28 03:56:04;;;;;;;10.90;2.30;;;23.50;57.20;;;;;;4985813;28;20023;-48
2023/06/28 03:58:30;;;;;;;8.10;2.10;;;23.50;57.10;;;;;;4993752;28;20025;-45
2023/06/28 04:00:56;;;;;;;7.60;2.00;;;23.50;57.10;;;;;;4993339;28;20030;-48
2023/06/28 04:03:21;;;;;;;8.77;2.03;;;23.50;57.20;;;;;;4991698;28;20101;-46
2023/06/28 04:05:47;;;;;;;6.90;1.80;;;23.50;57.10;;;;;;4989005;28;20199;-43
2023/06/28 04:08:14;;;;;;;9.52;2.10;;;23.50;57.10;;;;;;4972575;28;20038;-44
2023/06/28 04:10:41;;;;;;;6.35;2.13;;;23.50;57.10;;;;;;4993732;28;20029;-48
2023/06/28 04:13:07;;;;;;;6.68;2.03;;;23.40;57.10;;;;;;4994336;28;20037;-42
2023/06/28 04:15:33;;;;;;;11.00;2.33;;;23.40;57.10;;;;;;5000706;28;20027;-45
2023/06/28 04:17:59;;;;;;;10.10;1.98;;;23.50;57.10;;;;;;4987201;28;20031;-44
2023/06/28 04:20:25;;;;;;;10.82;2.45;;;23.40;57.00;;;;;;4991077;28;20100;-43
2023/06/28 04:22:50;;;;;;;10.35;2.28;;;23.50;57.10;;;;;;4987311;28;20517;-43
2023/06/28 04:25:16;;;;;;;9.10;2.13;;;23.40;57.10;;;;;;5002610;28;20022;-46
2023/06/28 04:27:42;;;;;;;7.00;2.83;;;23.40;57.10;;;;;;4993460;28;20507;-43
2023/06/28 04:30:08;;;;;;;10.05;2.30;;;23.40;57.20;;;;;;4999711;28;20022;-44
2023/06/28 04:32:34;;;;;;;9.10;2.60;;;23.40;57.30;;;;;;4993766;28;20030;-43
2023/06/28 04:35:01;;;;;;;9.90;2.10;;;23.40;57.10;;;;;;4988410;28;20034;-46
2023/06/28 04:37:27;;;;;;;7.82;2.00;;;23.40;57.10;;;;;;4992635;28;20065;-46
2023/06/28 04:40:01;;;;;;;7.97;2.15;;;23.40;57.10;;;;;;4986961;28;20031;-45
2023/06/28 04:42:26;;;;;;;6.93;2.17;;;23.50;57.30;;;;;;4997999;28;20039;-43
2023/06/28 04:44:54;;;;;;;11.25;2.35;;;23.50;57.20;;;;;;4973278;28;20520;-42
2023/06/28 04:47:20;;;;;;;11.50;2.45;;;23.50;57.20;;;;;;4992917;28;20027;-43
2023/06/28 04:49:48;;;;;;;9.50;2.03;;;23.50;57.00;;;;;;4993780;28;20441;-45
2023/06/28 04:52:15;;;;;;;10.60;2.80;;;23.40;57.10;;;;;;4991972;28;20081;-48
2023/06/28 04:54:41;;;;;;;12.25;2.47;;;23.40;57.00;;;;;;4990068;28;20510;-47
2023/06/28 04:57:07;;;;;;;13.63;2.70;;;23.40;57.00;;;;;;4991898;28;20050;-44
2023/06/28 04:59:33;;;;;;;8.30;2.50;;;23.40;57.70;;;;;;4992714;28;20105;-43
2023/06/28 05:01:59;;;;;;;10.05;2.60;;;23.50;57.30;;;;;;4992716;28;20515;-44
2023/06/28 05:04:25;;;;;;;10.05;2.47;;;23.40;57.40;;;;;;4992105;28;20027;-43
2023/06/28 05:06:54;;;;;;;12.15;2.60;;;23.40;57.30;;;;;;4992380;28;20114;-45
2023/06/28 05:09:20;;;;;;;11.90;2.50;;;23.40;57.40;;;;;;4986713;28;20030;-48
2023/06/28 05:11:46;;;;;;;9.95;3.08;;;23.40;57.30;;;;;;4985501;28;20023;-47
2023/06/28 05:14:11;;;;;;;8.45;2.53;;;23.40;57.20;;;;;;4990204;28;20100;-47
2023/06/28 05:16:37;;;;;;;9.60;2.35;;;23.40;57.30;;;;;;4986212;28;20027;-46
2023/06/28 05:19:03;;;;;;;7.82;2.25;;;23.40;57.30;;;;;;4992270;28;20026;-47
2023/06/28 05:21:29;;;;;;;7.85;2.72;;;23.40;57.30;;;;;;4984097;28;20518;-45
2023/06/28 05:23:54;;;;;;;7.25;2.35;;;23.40;57.50;;;;;;5000882;28;20401;-49
2023/06/28 05:26:20;;;;;;;11.25;2.70;;;23.50;57.70;;;;;;4983237;28;20023;-44
2023/06/28 05:28:46;;;;;;;7.25;2.22;;;23.40;57.50;;;;;;4973105;28;20066;-48
2023/06/28 05:31:12;;;;;;;17.92;2.90;;;23.50;57.50;;;;;;4973639;28;20058;-47
2023/06/28 05:33:40;;;;;;;14.32;2.22;;;23.50;57.90;;;;;;4983868;28;20014;-48
2023/06/28 05:36:07;;;;;;;14.95;2.75;;;23.50;57.90;;;;;;4991901;28;20030;-43
2023/06/28 05:38:32;;;;;;;13.55;2.50;;;23.50;58.00;;;;;;4991105;28;20557;-45
2023/06/28 05:41:15;;;;;;;23.48;3.05;;;23.50;57.90;;;;;;4991434;28;20109;-42
2023/06/28 05:43:46;;;;;;;13.40;2.65;;;23.50;58.30;;;;;;4985335;28;20019;-46
2023/06/28 05:46:12;;;;;;;8.20;2.50;;;23.50;59.20;;;;;;4988480;28;20082;-43
2023/06/28 05:48:38;;;;;;;15.65;3.10;;;23.50;59.00;;;;;;4987860;28;20055;-42
2023/06/28 05:51:09;;;;;;;21.20;3.30;;;23.50;59.20;;;;;;4987355;28;20394;-43
2023/06/28 05:53:37;;;;;;;13.27;2.97;;;23.50;59.60;;;;;;4990625;28;20022;-43
2023/06/28 05:56:03;;;;;;;11.52;2.75;;;23.50;59.60;;;;;;5000631;28;20042;-45
2023/06/28 05:58:29;;;;;;;18.00;3.45;;;23.50;58.80;;;;;;4984592;28;20069;-43
2023/06/28 06:00:55;;;;;;;15.73;3.03;;;23.50;59.20;;;;;;4986343;28;20054;-44
2023/06/28 06:03:21;;;;;;;11.23;3.17;;;23.50;59.40;;;;;;4991996;28;20402;-46
2023/06/28 06:05:47;;;;;;;12.05;2.70;;;23.50;59.80;;;;;;4986425;28;20031;-43
2023/06/28 06:08:13;;;;;;;12.07;2.88;;;23.50;59.70;;;;;;4977479;28;20075;-42
2023/06/28 06:10:39;;;;;;;10.43;2.72;;;23.50;59.80;;;;;;4991979;28;20030;-42
2023/06/28 06:13:04;;;;;;;8.20;2.75;;;23.50;59.70;;;;;;4991719;28;20402;-45
2023/06/28 06:15:30;;;;;;;13.38;2.70;;;23.50;59.80;;;;;;4991917;28;20023;-42
2023/06/28 06:17:56;;;;;;;14.23;3.30;;;23.40;59.60;;;;;;4992209;28;20042;-43
2023/06/28 06:20:22;;;;;;;12.13;3.25;;;23.40;59.40;;;;;;4991967;28;20445;-46
2023/06/28 06:22:49;;;;;;;11.02;2.80;;;23.50;59.60;;;;;;4989996;28;20030;-52
2023/06/28 06:25:15;;;;;;;7.43;2.40;;;23.50;59.60;;;;;;4983639;28;20379;-42
2023/06/28 06:27:41;;;;;;;14.10;3.17;;;23.50;59.50;;;;;;4990655;28;20033;-43
2023/06/28 06:30:10;;;;;;;6.28;2.60;;;23.40;59.50;;;;;;4991865;28;20061;-43
2023/06/28 06:32:36;;;;;;;9.50;3.20;;;23.50;59.60;;;;;;4991578;28;20026;-42
2023/06/28 06:35:02;;;;;;;7.88;2.90;;;23.50;59.60;;;;;;4991767;28;20046;-42
2023/06/28 06:37:28;;;;;;;6.50;2.65;;;23.50;59.60;;;;;;4991890;28;20054;-42
2023/06/28 06:39:54;;;;;;;7.95;2.90;;;23.40;59.60;;;;;;4991807;28;20514;-42
2023/06/28 06:42:20;;;;;;;9.27;2.80;;;23.50;59.60;;;;;;4986086;28;20022;-42
2023/06/28 06:44:46;;;;;;;7.78;3.13;;;23.50;59.60;;;;;;4984438;28;20040;-43
2023/06/28 06:47:12;;;;;;;6.32;2.90;;;23.40;59.50;;;;;;4991579;28;20030;-44
2023/06/28 06:49:38;;;;;;;11.23;3.50;;;23.50;59.50;;;;;;4995251;28;20390;-42
2023/06/28 06:52:04;;;;;;;13.77;3.00;;;23.50;59.60;;;;;;4995417;28;20023;-41
2023/06/28 06:54:30;;;;;;;8.23;2.80;;;23.50;59.50;;;;;;4995074;28;20026;-43
2023/06/28 06:56:59;;;;;;;6.70;2.80;;;23.50;59.60;;;;;;4994085;28;20035;-43
2023/06/28 06:59:26;;;;;;;10.05;2.75;;;23.50;59.50;;;;;;4995008;28;20315;-42
2023/06/28 07:01:52;;;;;;;10.88;2.70;;;23.50;59.60;;;;;;4995240;28;20045;-43
2023/06/28 07:04:21;;;;;;;10.35;3.10;;;23.50;59.50;;;;;;4994800;28;20031;-42
2023/06/28 07:06:48;;;;;;;20.08;3.17;;;23.50;59.50;;;;;;4995156;28;20026;-42
2023/06/28 07:09:15;;;;;;;9.48;2.95;;;23.40;59.50;;;;;;4995112;28;20418;-43
2023/06/28 07:11:41;;;;;;;6.38;3.00;;;23.50;59.50;;;;;;4994986;28;20026;-43
2023/06/28 07:14:07;;;;;;;9.38;2.72;;;23.50;59.50;;;;;;4992286;28;20026;-43
2023/06/28 07:16:33;;;;;;;9.98;2.80;;;23.50;59.50;;;;;;4986539;28;20109;-43
2023/06/28 07:18:59;;;;;;;9.05;2.85;;;23.50;59.50;;;;;;4994854;28;20080;-43
2023/06/28 07:21:25;;;;;;;13.65;2.97;;;23.50;59.50;;;;;;4994867;28;20549;-43
2023/06/28 07:23:50;;;;;;;5.97;2.67;;;23.50;59.50;;;;;;4994405;28;20502;-43
2023/06/28 07:26:17;;;;;;;7.18;2.55;;;23.50;59.50;;;;;;4984223;28;20023;-43
2023/06/28 07:28:43;;;;;;;7.03;2.88;;;23.50;59.40;;;;;;4981787;28;20034;-42
2023/06/28 07:31:09;;;;;;;7.72;2.78;;;23.50;59.20;;;;;;4986913;28;20030;-42
2023/06/28 07:33:35;;;;;;;9.73;2.88;;;23.50;59.50;;;;;;4990986;28;20386;-43
2023/06/28 07:36:00;;;;;;;10.30;2.92;;;23.50;59.60;;;;;;4991797;28;20030;-47
2023/06/28 07:38:26;;;;;;;11.27;2.85;;;23.50;59.80;;;;;;4991855;28;20080;-48
2023/06/28 07:40:53;;;;;;;8.23;2.70;;;23.50;59.60;;;;;;4990852;28;20093;-46
2023/06/28 07:43:19;;;;;;;7.93;2.75;;;23.60;59.70;;;;;;4991728;28;20030;-51
2023/06/28 07:45:45;;;;;;;6.90;2.72;;;23.60;59.70;;;;;;4991934;28;20034;-47
2023/06/28 07:48:11;;;;;;;8.13;3.10;;;23.60;59.50;;;;;;4992960;28;20093;-46
2023/06/28 07:50:37;;;;;;;10.95;2.50;;;23.60;59.70;;;;;;4992163;28;20502;-49
2023/06/28 07:53:04;;;;;;;7.40;2.90;;;23.60;59.60;;;;;;4991852;28;20032;-44
2023/06/28 07:55:30;;;;;;;8.45;3.22;;;23.60;59.70;;;;;;4991782;28;20030;-45
2023/06/28 07:57:57;;;;;;;7.25;3.00;;;23.60;59.70;;;;;;4991457;28;20034;-48
2023/06/28 08:00:26;;;;;;;7.85;2.70;;;23.60;59.60;;;;;;4989493;28;20054;-42
2023/06/28 08:02:52;;;;;;;8.40;3.13;;;23.60;59.70;;;;;;4992095;28;20081;-48
2023/06/28 08:05:19;;;;;;;8.20;3.00;;;23.70;60.90;;;;;;4991179;28;20038;-42
2023/06/28 08:07:46;;;;;;;10.75;2.90;;;23.70;60.10;;;;;;4991547;28;20110;-43
2023/06/28 08:10:12;;;;;;;13.18;2.78;;;23.70;59.30;;;;;;4992048;28;20096;-46
2023/06/28 08:12:38;;;;;;;7.97;3.10;;;23.70;58.00;;;;;;4982414;28;20022;-45
2023/06/28 08:15:04;;;;;;;15.07;2.70;;;23.60;58.90;;;;;;4990138;28;20528;-45
2023/06/28 08:17:30;;;;;;;9.93;3.00;;;23.70;57.90;;;;;;4991448;28;20030;-46
2023/06/28 08:19:56;;;;;;;5.88;2.50;;;23.60;57.30;;;;;;4991884;28;20093;-42
2023/06/28 08:22:22;;;;;;;8.38;2.50;;;23.70;56.50;;;;;;4991433;28;20499;-44
2023/06/28 08:24:48;;;;;;;9.98;2.70;;;23.70;57.00;;;;;;4991508;28;20030;-41
2023/06/28 08:27:14;;;;;;;6.65;2.60;;;23.60;55.70;;;;;;4991440;28;20049;-49
2023/06/28 08:29:40;;;;;;;13.85;2.20;;;23.60;57.10;;;;;;4991754;28;20462;-45
2023/06/28 08:32:06;;;;;;;5.68;2.13;;;23.60;57.00;;;;;;4990091;28;20405;-42
2023/06/28 08:34:32;;;;;;;22.30;2.75;;;23.60;57.60;;;;;;4991162;28;20045;-43
2023/06/28 08:36:58;;;;;;;9.70;2.08;;;23.60;57.30;;;;;;4991545;28;20480;-51
2023/06/28 08:39:24;;;;;;;9.02;2.08;;;23.60;57.20;;;;;;4991196;28;20502;-46
2023/06/28 08:41:52;;;;;;;8.13;2.45;;;23.60;57.20;;;;;;4991245;28;20038;-42
2023/06/28 08:44:20;;;;;;;6.78;2.20;;;23.60;57.20;;;;;;4989569;28;20061;-45
2023/06/28 08:46:47;;;;;;;8.60;2.20;;;23.60;57.30;;;;;;4991113;28;20034;-42
2023/06/28 08:49:14;;;;;;;12.18;2.30;;;23.60;57.50;;;;;;4987765;28;20486;-42
2023/06/28 08:51:41;;;;;;;9.85;2.00;;;23.60;57.70;;;;;;4991100;28;20561;-46
2023/06/28 08:54:09;;;;;;;13.25;2.30;;;23.60;57.70;;;;;;4990843;28;20034;-43
2023/06/28 08:56:35;;;;;;;8.20;2.10;;;23.60;57.80;;;;;;4990828;28;20026;-40
2023/06/28 08:59:03;;;;;;;7.60;2.20;;;23.60;58.10;;;;;;4991242;28;20038;-43
2023/06/28 09:01:29;;;;;;;6.85;1.95;;;23.60;58.80;;;;;;4982079;28;20066;-42
2023/06/28 09:03:56;;;;;;;11.27;2.35;;;23.60;58.10;;;;;;4990318;28;20069;-42
2023/06/28 09:06:22;;;;;;;7.95;2.40;;;23.60;58.00;;;;;;4988990;28;20038;-42
2023/06/28 09:08:48;;;;;;;11.95;2.15;;;23.60;58.50;;;;;;4990327;28;20033;-42
2023/06/28 09:11:16;;;;;;;7.32;1.88;;;23.60;58.70;;;;;;4990101;28;20105;-41
2023/06/28 09:13:43;;;;;;;8.15;2.40;;;23.70;58.60;;;;;;4989942;28;20498;-43
2023/06/28 09:16:10;;;;;;;7.80;1.80;;;23.60;58.70;;;;;;4990637;28;20486;-43
2023/06/28 09:18:36;;;;;;;9.75;2.00;;;23.70;58.20;;;;;;4989472;28;20094;-43
2023/06/28 09:21:03;;;;;;;8.70;2.63;;;23.70;58.50;;;;;;4990013;28;20022;-42
2023/06/28 09:23:30;;;;;;;8.73;2.20;;;23.80;58.70;;;;;;4990091;28;20113;-41
2023/06/28 09:25:56;;;;;;;7.93;2.47;;;23.70;58.60;;;;;;4990551;28;20379;-42
2023/06/28 09:28:30;;;;;;;6.80;2.10;;;23.80;58.60;;;;;;4990279;28;20034;-43
2023/06/28 09:30:56;;;;;;;8.75;2.33;;;23.80;59.00;;;;;;4986905;28;20390;-41
2023/06/28 09:33:23;;;;;;;9.98;2.47;;;23.80;58.50;;;;;;4989951;28;20038;-42
2023/06/28 09:35:58;;;;;;;17.10;2.40;;;23.70;58.40;;;;;;4990272;28;20026;-43
2023/06/28 09:38:25;;;;;;;6.72;2.30;;;23.70;58.60;;;;;;4990162;28;20026;-41
2023/06/28 09:41:00;;;;;;;8.82;2.28;;;23.70;58.70;;;;;;4990032;28;20041;-45
2023/06/28 09:43:34;;;;;;;7.40;1.85;;;23.70;58.70;;;;;;4989886;28;20038;-41
2023/06/28 09:46:13;;;;;;;5.95;2.00;;;23.70;58.70;;;;;;4988116;28;20466;-41
2023/06/28 09:48:44;;;;;;;5.28;1.90;;;23.60;58.80;;;;;;4982479;28;20035;-43
2023/06/28 09:51:11;;;;;;;6.32;2.20;;;23.60;58.80;;;;;;4989912;28;20030;-42
2023/06/28 09:53:48;;;;;;;6.72;2.00;;;23.60;58.80;;;;;;4990233;28;20022;-42
2023/06/28 09:56:14;;;;;;;5.38;2.15;;;23.60;58.80;;;;;;4990377;28;20509;-43
2023/06/28 09:58:41;;;;;;;8.20;2.13;;;23.60;58.70;;;;;;4990400;28;20046;-45
2023/06/28 10:01:07;;;;;;;8.55;2.13;;;23.60;58.90;;;;;;4988673;28;20489;-41
2023/06/28 10:03:33;;;;;;;10.55;2.20;;;23.60;58.90;;;;;;4989006;28;20035;-42
2023/06/28 10:06:00;;;;;;;7.60;1.88;;;23.60;59.00;;;;;;4990145;28;20133;-43
2023/06/28 10:08:26;;;;;;;9.63;1.95;;;23.60;58.90;;;;;;4990004;28;20493;-43
2023/06/28 10:10:57;;;;;;;5.15;1.98;;;23.60;59.00;;;;;;4990274;28;20089;-42
2023/06/28 10:13:26;;;;;;;12.90;2.33;;;23.60;58.90;;;;;;4989642;28;20033;-42
2023/06/28 10:16:07;;;;;;;6.22;1.80;;;23.60;59.00;;;;;;4990249;28;20042;-42
2023/06/28 10:18:34;;;;;;;6.95;1.73;;;23.60;59.10;;;;;;4989710;28;20038;-42
2023/06/28 10:21:00;;;;;;;4.78;1.80;;;23.60;59.00;;;;;;4988705;28;20036;-42
2023/06/28 10:23:26;;;;;;;6.40;2.00;;;23.60;59.00;;;;;;4989885;28;20482;-42
2023/06/28 10:25:54;;;;;;;7.95;2.30;;;23.60;59.10;;;;;;4993747;28;20034;-41
2023/06/28 10:28:20;;;;;;;6.00;2.00;;;23.60;59.10;;;;;;4992276;28;20054;-42
2023/06/28 10:30:47;;;;;;;5.90;1.90;;;23.60;59.30;;;;;;4994089;28;20698;-42
2023/06/28 10:33:15;;;;;;;4.43;1.83;;;23.60;59.10;;;;;;4993298;28;20030;-41
2023/06/28 10:35:43;;;;;;;7.07;1.80;;;23.60;59.20;;;;;;4993008;28;20038;-41
2023/06/28 10:38:10;;;;;;;4.05;1.95;;;23.60;59.10;;;;;;4993655;28;20057;-41
2023/06/28 10:40:36;;;;;;;7.30;2.08;;;23.60;59.10;;;;;;4992892;28;20022;-44
2023/06/28 10:43:03;;;;;;;4.85;1.63;;;23.60;59.10;;;;;;4993234;28;20081;-44
2023/06/28 10:45:35;;;;;;;9.77;2.08;;;23.60;59.10;;;;;;4992167;28;20493;-42
2023/06/28 10:48:03;;;;;;;7.13;1.95;;;23.70;59.30;;;;;;4992524;28;20030;-41
2023/06/28 10:50:38;;;;;;;6.90;1.88;;;23.60;59.30;;;;;;4993745;28;20099;-42
2023/06/28 10:53:04;;;;;;;9.48;2.05;;;23.70;59.40;;;;;;4992769;28;20038;-41
2023/06/28 10:55:34;;;;;;;5.47;1.80;;;23.70;59.80;;;;;;4991537;28;20501;-41
2023/06/28 10:58:08;;;;;;;5.90;2.00;;;23.70;59.30;;;;;;4991570;28;20030;-42
2023/06/28 11:00:36;;;;;;;9.45;2.05;;;23.70;59.20;;;;;;4992997;28;20030;-41
2023/06/28 11:03:06;;;;;;;5.95;1.90;;;23.70;59.30;;;;;;4992897;28;20034;-42
2023/06/28 11:05:52;;;;;;;;;;;23.70;59.50;;;;;;4992178;28;20030;-43
2023/06/28 11:08:19;;;;;;;5.93;1.88;;;23.70;59.30;;;;;;4993048;28;19945;-41
2023/06/28 11:10:54;;;;;;;5.75;2.03;;;23.70;59.20;;;;;;4993152;28;20030;-42
2023/06/28 11:13:45;;;;;;;5.97;2.05;;;23.70;59.30;;;;;;4989674;28;20035;-41
2023/06/28 11:16:20;;;;;;;5.25;1.90;;;23.70;59.50;;;;;;4989453;28;20088;-42
2023/06/28 11:18:47;;;;;;;5.28;1.65;;;23.70;59.10;;;;;;4993067;28;20126;-42
2023/06/28 11:21:24;;;;;;;8.07;2.17;;;23.70;59.20;;;;;;5006253;23;20042;-51
2023/06/28 11:23:54;;;;;;;5.50;2.03;;;23.60;58.80;;;;;;4992231;28;20084;-50
2023/06/28 11:26:41;;;;;;;5.50;1.88;;;23.60;58.60;;;;;;4999050;28;20022;-52
2023/06/28 11:29:18;;;;;;;14.25;2.60;;;23.60;57.30;;;;;;4991544;28;20034;-52
2023/06/28 11:31:51;;;;;;;14.70;2.28;;;23.70;57.20;;;;;;4980300;28;20465;-54
2023/06/28 11:34:18;;;;;;;7.88;2.03;;;23.70;57.50;;;;;;4977257;28;20490;-55
2023/06/28 11:36:46;;;;;;;14.05;2.55;;;23.60;58.40;;;;;;4978653;28;20066;-54
2023/06/28 11:39:19;;;;;;;9.90;2.45;;;23.60;58.70;;;;;;4984827;28;20029;-50
2023/06/28 11:41:45;;;;;;;6.07;2.03;;;23.50;58.50;;;;;;4990563;28;20089;-55
2023/06/28 11:44:13;;;;;;;8.70;2.20;;;23.50;58.30;;;;;;4990602;28;20026;-52
2023/06/28 11:46:40;;;;;;;7.68;2.00;;;23.50;58.00;;;;;;4980287;28;20513;-52
2023/06/28 11:49:06;;;;;;;9.07;2.58;;;23.50;57.70;;;;;;4979839;28;20029;-51
2023/06/28 11:51:33;;;;;;;7.03;2.17;;;23.50;58.00;;;;;;4972375;28;20026;-55
2023/06/28 11:53:59;;;;;;;4.40;2.03;;;23.50;58.00;;;;;;4987024;28;20354;-48
2023/06/28 11:56:38;;;;;;;6.20;2.25;;;23.50;58.00;;;;;;4982437;28;20084;-52
2023/06/28 11:59:16;;;;;;;6.07;1.95;;;23.50;58.30;;;;;;4979962;28;20414;-52
2023/06/28 12:01:43;;;;;;;5.30;2.00;;;23.50;57.40;;;;;;4983797;28;20434;-48
2023/06/28 12:04:20;;;;;;;5.80;1.80;;;23.50;57.10;;;;;;4988507;28;20393;-47
2023/06/28 12:06:47;;;;;;;4.85;1.83;;;23.50;56.90;;;;;;4976064;28;20046;-52
2023/06/28 12:09:24;;;;;;;6.75;2.00;;;23.50;57.10;;;;;;4986736;28;20030;-48
2023/06/28 12:11:58;;;;;;;7.65;1.98;;;23.50;57.30;;;;;;4984854;28;20061;-54
2023/06/28 12:14:25;;;;;;;6.05;1.77;;;23.50;57.00;;;;;;4980531;28;20022;-47
2023/06/28 12:16:51;;;;;;;9.45;1.90;;;23.50;56.90;;;;;;4977547;28;20062;-49
2023/06/28 12:19:19;;;;;;;5.95;1.80;;;23.50;57.00;;;;;;4986039;28;20037;-47
2023/06/28 12:21:45;;;;;;;4.35;1.70;;;23.50;56.80;;;;;;4985913;28;20498;-49
2023/06/28 12:24:24;;;;;;;5.63;1.98;;;23.50;56.70;;;;;;4990515;28;20041;-49
2023/06/28 12:26:53;;;;;;;6.18;1.90;;;23.50;56.80;;;;;;4985128;28;20144;-53
2023/06/28 12:29:23;;;;;;;;;;;23.60;56.80;;;;;;4990186;28;20062;-53
2023/06/28 12:31:51;;;;;;;6.25;2.03;;;23.60;56.60;;;;;;4975747;28;19918;-55
2023/06/28 12:34:22;;;;;;;10.68;2.42;;;23.60;56.30;;;;;;4976316;28;20041;-50
2023/06/28 12:36:56;;;;;;;8.70;2.20;;;23.60;55.50;;;;;;4990639;28;20101;-48
2023/06/28 12:39:31;;;;;;;10.20;1.70;;;23.70;56.20;;;;;;4987374;28;20398;-50
2023/06/28 12:42:16;;;;;;;14.93;2.53;;;23.70;56.30;;;;;;4989293;28;20030;-50
2023/06/28 12:44:54;;;;;;;16.70;2.47;;;23.70;56.30;;;;;;4983292;28;20026;-54
2023/06/28 12:47:28;;;;;;;31.85;3.08;;;23.70;56.70;;;;;;4991194;28;20267;-55